Time;durP1;ratioP1;P1;durP2;ratioP2;P2;SDS_P1;SDS_P2;PMS_P1;PMS_P2;Temp;Humidity;BMP_temperature;BMP_pressure;BME280_temperature;BME280_humidity;BME280_pressure;Samples;Min_cycle;Max_cycle;Signal;HPM_P1;HPM_P2
2021/05/15 00:01:43;;;;;;;3.60;1.63;;;16.80;49.00;;;;;;5066294;28;20439;-72
2021/05/15 00:04:11;;;;;;;2.88;1.90;;;17.00;48.90;;;;;;5048033;28;20388;-69
2021/05/15 00:06:38;;;;;;;1.20;0.60;;;16.90;48.40;;;;;;5047682;28;20499;-63
2021/05/15 00:09:06;;;;;;;0.20;0.20;;;16.80;48.20;;;;;;5065038;28;20401;-63
2021/05/15 00:11:35;;;;;;;0.73;0.45;;;16.90;48.30;;;;;;5068045;28;20157;-62
2021/05/15 00:14:04;;;;;;;1.48;0.40;;;17.10;48.10;;;;;;5066168;28;20716;-72
2021/05/15 00:16:31;;;;;;;0.85;0.40;;;17.20;47.00;;;;;;5068019;28;20066;-74
2021/05/15 00:18:59;;;;;;;1.23;0.60;;;17.20;46.60;;;;;;5065727;28;20055;-67
2021/05/15 00:21:26;;;;;;;1.13;0.40;;;17.00;47.30;;;;;;5048607;28;20024;-64
2021/05/15 00:23:54;;;;;;;2.65;0.50;;;16.90;46.80;;;;;;5046968;28;20045;-69
2021/05/15 00:26:21;;;;;;;1.27;0.60;;;16.80;47.50;;;;;;5065016;28;20103;-70
2021/05/15 00:28:48;;;;;;;2.17;0.85;;;16.90;47.50;;;;;;5047419;28;20035;-72
2021/05/15 00:31:16;;;;;;;1.25;0.65;;;17.10;47.90;;;;;;5063971;28;20020;-63
2021/05/15 00:33:43;;;;;;;0.75;0.40;;;17.50;47.20;;;;;;5067415;28;20033;-73
2021/05/15 00:36:10;;;;;;;0.20;0.20;;;17.40;46.60;;;;;;5066847;28;20031;-73
2021/05/15 00:38:38;;;;;;;0.85;0.25;;;17.50;46.40;;;;;;5065555;28;20024;-62
2021/05/15 00:41:05;;;;;;;0.80;0.30;;;17.60;47.10;;;;;;5066072;28;20028;-62
2021/05/15 00:43:33;;;;;;;0.95;0.30;;;17.70;46.70;;;;;;5066385;28;20081;-72
2021/05/15 00:46:00;;;;;;;0.73;0.47;;;17.70;46.80;;;;;;5065231;28;20032;-70
2021/05/15 00:48:27;;;;;;;2.38;0.60;;;17.50;46.00;;;;;;5048327;28;20038;-61
2021/05/15 00:50:55;;;;;;;1.05;0.45;;;17.50;46.10;;;;;;5065774;28;20028;-64
2021/05/15 00:53:22;;;;;;;1.13;0.80;;;17.60;46.40;;;;;;5066311;28;20112;-62
2021/05/15 00:55:50;;;;;;;0.63;0.40;;;17.50;45.80;;;;;;5066287;28;20025;-69
2021/05/15 00:58:17;;;;;;;4.32;1.42;;;17.20;45.90;;;;;;5064882;28;20075;-71
2021/05/15 01:00:44;;;;;;;1.33;0.93;;;17.10;46.70;;;;;;5065985;28;20032;-67
2021/05/15 01:03:12;;;;;;;0.93;0.70;;;17.10;46.50;;;;;;5065459;28;20021;-72
2021/05/15 01:05:39;;;;;;;2.63;0.85;;;17.10;46.80;;;;;;5064244;28;20032;-73
2021/05/15 01:08:06;;;;;;;1.95;0.40;;;17.10;47.10;;;;;;5046414;28;20032;-61
2021/05/15 01:10:34;;;;;;;1.90;0.50;;;17.20;47.90;;;;;;5067892;28;20032;-68
2021/05/15 01:13:01;;;;;;;0.88;0.30;;;17.30;47.10;;;;;;5065760;28;20017;-64
2021/05/15 01:15:29;;;;;;;0.45;0.35;;;17.20;46.50;;;;;;5064284;28;20392;-71
2021/05/15 01:17:58;;;;;;;0.75;0.32;;;17.20;46.50;;;;;;5063335;28;20027;-68
2021/05/15 01:20:31;;;;;;;1.75;0.63;;;17.20;46.20;;;;;;5061595;28;20073;-76
2021/05/15 01:23:00;;;;;;;5.50;0.77;;;17.30;46.70;;;;;;5135625;22;20423;-67
2021/05/15 01:25:27;;;;;;;7.18;0.90;;;17.70;50.20;;;;;;5102922;28;20027;-67
2021/05/15 01:27:55;;;;;;;6.47;1.10;;;17.70;46.20;;;;;;5125522;27;20374;-66
2021/05/15 01:30:23;;;;;;;6.90;1.40;;;17.60;48.10;;;;;;5125930;27;20016;-68
2021/05/15 01:32:50;;;;;;;5.43;1.08;;;17.40;49.80;;;;;;5131356;27;20040;-67
2021/05/15 01:35:18;;;;;;;5.40;0.80;;;17.30;49.10;;;;;;5128823;27;20094;-71
2021/05/15 01:37:46;;;;;;;4.20;0.93;;;17.30;48.90;;;;;;5112015;27;20133;-73
2021/05/15 01:40:14;;;;;;;1.98;0.50;;;17.40;50.80;;;;;;5130231;27;20080;-65
2021/05/15 01:42:44;;;;;;;10.68;1.20;;;17.50;49.70;;;;;;5111547;27;20530;-69
2021/05/15 01:45:12;;;;;;;2.78;0.60;;;17.60;50.10;;;;;;5129292;27;20048;-71
2021/05/15 01:47:39;;;;;;;8.30;1.10;;;17.60;48.20;;;;;;5131427;27;20034;-68
2021/05/15 01:50:09;;;;;;;3.38;0.50;;;18.30;48.30;;;;;;5112453;27;20569;-71
2021/05/15 01:52:36;;;;;;;10.40;1.33;;;18.70;45.30;;;;;;5131902;27;20023;-70
2021/05/15 01:55:16;;;;;;;2.33;0.50;;;18.80;46.90;;;;;;5130261;27;20533;-65
2021/05/15 01:57:43;;;;;;;2.92;0.73;;;18.60;45.30;;;;;;5128832;27;20122;-66
2021/05/15 02:28:40;;;;;;;3.53;2.05;;;18.00;47.70;;;;;;4728896;27;10001566;-70
2021/05/15 02:31:08;;;;;;;1.85;0.70;;;18.40;47.80;;;;;;5078954;28;20029;-69
2021/05/15 02:33:35;;;;;;;1.38;0.98;;;18.20;46.50;;;;;;5077989;28;20093;-72
2021/05/15 02:36:02;;;;;;;4.13;1.15;;;18.20;46.20;;;;;;5076274;28;20138;-71
2021/05/15 02:38:30;;;;;;;7.60;0.90;;;18.10;45.90;;;;;;5077290;28;20023;-71
2021/05/15 02:41:00;;;;;;;9.38;1.40;;;17.80;50.60;;;;;;5079664;28;20028;-67
2021/05/15 02:43:27;;;;;;;3.25;0.73;;;16.90;54.40;;;;;;5077966;28;20043;-70
2021/05/15 02:45:54;;;;;;;3.30;0.50;;;16.10;60.40;;;;;;5080571;28;20052;-67
2021/05/15 02:48:22;;;;;;;1.95;0.40;;;15.30;66.10;;;;;;5074068;28;20046;-70
2021/05/15 02:50:51;;;;;;;0.38;0.30;;;14.90;68.90;;;;;;5079189;28;20611;-71
2021/05/15 02:53:19;;;;;;;1.45;0.20;;;14.70;69.10;;;;;;5077201;28;20028;-68
2021/05/15 02:55:47;;;;;;;13.20;0.93;;;14.50;70.70;;;;;;5079493;28;20107;-73
2021/05/15 02:58:16;;;;;;;2.00;0.40;;;14.20;67.50;;;;;;5079586;28;20021;-71
2021/05/15 03:00:44;;;;;;;1.00;0.40;;;14.50;66.10;;;;;;5079086;28;20499;-69
2021/05/15 03:03:11;;;;;;;1.65;0.38;;;14.90;63.90;;;;;;5079595;28;20020;-70
2021/05/15 03:05:39;;;;;;;1.70;0.30;;;15.20;60.00;;;;;;5079255;28;20039;-71
2021/05/15 03:08:06;;;;;;;4.13;0.38;;;15.20;58.60;;;;;;5077452;28;20645;-69
2021/05/15 03:10:36;;;;;;;0.75;0.30;;;15.30;57.40;;;;;;5075999;28;20035;-73
2021/05/15 03:13:07;;;;;;;0.90;0.30;;;15.20;57.00;;;;;;5079059;28;20020;-70
2021/05/15 03:15:37;;;;;;;5.82;0.73;;;15.00;54.90;;;;;;5078677;28;20392;-68
2021/05/15 03:18:04;;;;;;;1.13;0.50;;;14.80;56.40;;;;;;5078567;28;20028;-70
2021/05/15 03:20:31;;;;;;;3.92;0.90;;;15.00;56.00;;;;;;5079338;28;20024;-70
2021/05/15 03:22:59;;;;;;;4.53;0.70;;;15.00;53.90;;;;;;5078901;28;20379;-69
2021/05/15 03:25:26;;;;;;;6.03;1.58;;;15.00;51.60;;;;;;5076816;28;20089;-71
2021/05/15 03:27:53;;;;;;;3.80;1.35;;;14.90;51.90;;;;;;5016418;28;20050;-69
2021/05/15 03:30:21;;;;;;;2.00;0.60;;;15.00;51.20;;;;;;4983749;28;20026;-71
2021/05/15 03:32:48;;;;;;;3.35;0.60;;;15.20;49.60;;;;;;4982292;28;20495;-68
2021/05/15 03:35:19;;;;;;;1.48;0.63;;;15.60;48.80;;;;;;5015591;28;20049;-72
2021/05/15 03:37:46;;;;;;;2.58;0.50;;;15.70;49.50;;;;;;4982235;28;20062;-69
2021/05/15 03:40:14;;;;;;;3.45;0.55;;;15.70;49.70;;;;;;4983626;28;20022;-68
2021/05/15 03:42:42;;;;;;;3.60;0.30;;;15.70;50.50;;;;;;4988964;28;20033;-71
2021/05/15 03:45:12;;;;;;;0.57;0.30;;;15.80;50.20;;;;;;4982347;28;20027;-72
2021/05/15 03:47:40;;;;;;;1.75;0.38;;;16.00;49.10;;;;;;4982891;28;20022;-74
2021/05/15 03:50:08;;;;;;;2.45;0.57;;;15.90;49.20;;;;;;4984624;28;20038;-70
2021/05/15 03:52:36;;;;;;;1.83;0.65;;;15.50;50.20;;;;;;4982775;28;20038;-71
2021/05/15 03:55:04;;;;;;;9.68;0.95;;;15.30;49.50;;;;;;4982755;28;20030;-72
2021/05/15 03:57:32;;;;;;;14.25;1.85;;;15.10;49.50;;;;;;4983692;28;20026;-69
2021/05/15 04:00:00;;;;;;;1.67;0.60;;;15.00;49.30;;;;;;4983198;28;20113;-73
2021/05/15 04:02:28;;;;;;;2.03;0.43;;;15.00;49.60;;;;;;4980823;28;20121;-72
2021/05/15 04:04:57;;;;;;;1.17;0.50;;;15.10;49.70;;;;;;4982721;28;20023;-70
2021/05/15 04:07:24;;;;;;;0.30;0.30;;;14.90;49.70;;;;;;4978903;28;20083;-72
2021/05/15 04:09:52;;;;;;;2.65;0.60;;;14.90;49.80;;;;;;4977390;28;20039;-72
2021/05/15 04:12:19;;;;;;;1.08;0.38;;;15.10;49.70;;;;;;4982757;28;20348;-68
2021/05/15 04:14:51;;;;;;;2.08;0.85;;;15.50;48.10;;;;;;4979257;28;20042;-71
2021/05/15 04:17:28;;;;;;;1.42;0.40;;;15.80;48.70;;;;;;4980014;28;20482;-67
2021/05/15 04:19:57;;;;;;;0.65;0.40;;;16.00;47.70;;;;;;4982928;28;20022;-69
2021/05/15 04:22:25;;;;;;;0.52;0.30;;;16.30;48.00;;;;;;4981905;28;20030;-72
2021/05/15 04:24:53;;;;;;;0.30;0.20;;;16.60;46.00;;;;;;4984261;28;20542;-67
2021/05/15 04:27:20;;;;;;;0.68;0.47;;;16.60;46.20;;;;;;4983079;28;20141;-68
2021/05/15 04:29:49;;;;;;;5.20;0.65;;;16.70;45.50;;;;;;4982851;28;20514;-70
2021/05/15 04:32:19;;;;;;;0.90;0.40;;;16.90;46.50;;;;;;4981906;28;20127;-71
2021/05/15 04:34:49;;;;;;;8.77;1.70;;;16.90;43.30;;;;;;4983173;28;20029;-68
2021/05/15 04:37:19;;;;;;;6.18;1.95;;;16.70;40.70;;;;;;4979602;28;20511;-68
2021/05/15 04:39:50;;;;;;;7.40;0.85;;;16.40;40.50;;;;;;4981952;28;20026;-70
2021/05/15 04:42:20;;;;;;;12.23;1.10;;;16.30;40.80;;;;;;4982430;28;20531;-72
2021/05/15 04:44:50;;;;;;;3.60;0.70;;;16.30;41.60;;;;;;4982112;28;20333;-68
2021/05/15 04:47:17;;;;;;;2.45;0.50;;;16.10;41.70;;;;;;4981723;28;20034;-73
2021/05/15 04:49:44;;;;;;;4.00;0.57;;;16.00;42.30;;;;;;4982982;28;20046;-73
2021/05/15 04:52:12;;;;;;;1.70;0.50;;;15.80;42.40;;;;;;4981493;28;20092;-74
2021/05/15 04:54:39;;;;;;;1.13;0.60;;;15.70;43.60;;;;;;4981251;28;20486;-70
2021/05/15 04:57:07;;;;;;;0.93;0.50;;;15.60;43.60;;;;;;4982347;28;20045;-71
2021/05/15 04:59:34;;;;;;;1.08;0.40;;;15.50;43.40;;;;;;4640439;28;10000308;-74
2021/05/15 05:02:01;;;;;;;1.40;0.50;;;15.80;44.30;;;;;;4976237;28;20038;-73
2021/05/15 05:04:29;;;;;;;3.35;0.52;;;16.10;43.70;;;;;;4979281;28;20121;-71
2021/05/15 05:06:56;;;;;;;2.30;0.43;;;16.10;41.00;;;;;;4978221;28;20519;-70
2021/05/15 05:09:24;;;;;;;8.07;0.90;;;16.10;39.80;;;;;;4978422;28;20325;-70
2021/05/15 05:11:51;;;;;;;2.00;0.60;;;16.30;40.40;;;;;;4976685;28;20387;-73
2021/05/15 05:14:18;;;;;;;1.60;0.35;;;16.30;40.10;;;;;;4976288;28;20417;-71
2021/05/15 05:16:46;;;;;;;3.25;0.80;;;16.40;40.00;;;;;;4977899;28;20440;-69
2021/05/15 05:19:13;;;;;;;3.42;0.50;;;16.40;39.90;;;;;;4978139;28;20418;-69
2021/05/15 05:21:41;;;;;;;3.17;0.43;;;16.50;40.80;;;;;;4975752;28;20026;-75
2021/05/15 05:24:09;;;;;;;1.95;0.73;;;16.40;40.40;;;;;;4977062;28;20113;-74
2021/05/15 05:26:38;;;;;;;2.13;0.40;;;16.70;40.70;;;;;;4977717;28;20047;-72
2021/05/15 05:29:09;;;;;;;4.00;0.65;;;16.60;40.30;;;;;;4979595;28;20053;-73
2021/05/15 05:31:38;;;;;;;2.03;0.98;;;16.70;41.30;;;;;;4978818;28;20400;-70
2021/05/15 05:34:07;;;;;;;1.35;0.90;;;16.80;41.20;;;;;;4977882;28;20159;-77
2021/05/15 05:36:36;;;;;;;2.13;0.60;;;16.90;39.60;;;;;;4976790;28;20033;-70
2021/05/15 05:39:24;;;;;;;2.28;0.65;;;16.80;40.10;;;;;;4978720;28;20451;-75
2021/05/15 05:41:52;;;;;;;1.15;0.43;;;16.60;39.60;;;;;;4978650;28;20036;-72
2021/05/15 05:44:19;;;;;;;0.70;0.55;;;16.50;40.40;;;;;;4979912;28;20216;-73
2021/05/15 05:46:46;;;;;;;2.35;0.70;;;16.70;40.80;;;;;;4978281;28;20022;-76
2021/05/15 05:49:14;;;;;;;3.63;0.70;;;16.50;39.40;;;;;;4979060;28;20030;-75
2021/05/15 05:51:41;;;;;;;2.67;0.45;;;16.50;40.10;;;;;;4999497;28;20018;-71
2021/05/15 05:54:08;;;;;;;9.30;1.38;;;16.20;40.20;;;;;;4979846;28;20039;-73
2021/05/15 05:56:36;;;;;;;3.70;0.63;;;15.90;41.60;;;;;;4981809;28;20038;-71
2021/05/15 05:59:04;;;;;;;1.92;0.50;;;15.70;41.60;;;;;;4982257;28;20034;-69
2021/05/15 06:01:35;;;;;;;2.35;0.50;;;15.50;42.60;;;;;;4981519;28;20109;-73
2021/05/15 06:04:03;;;;;;;9.93;1.42;;;15.30;42.00;;;;;;4980202;28;20037;-69
2021/05/15 06:06:34;;;;;;;8.13;1.08;;;15.20;41.90;;;;;;4979599;28;20612;-72
2021/05/15 06:09:03;;;;;;;11.75;1.38;;;15.10;42.40;;;;;;4980426;28;20566;-71
2021/05/15 06:11:31;;;;;;;5.45;0.98;;;15.00;42.90;;;;;;4980120;28;20489;-72
2021/05/15 06:13:58;;;;;;;10.63;1.17;;;14.90;42.70;;;;;;4973632;28;20026;-70
2021/05/15 06:16:26;;;;;;;7.40;0.77;;;14.90;42.60;;;;;;4972519;28;20094;-69
2021/05/15 06:18:53;;;;;;;6.85;1.83;;;14.80;43.50;;;;;;4977317;28;20521;-69
2021/05/15 06:21:21;;;;;;;1.58;0.50;;;14.80;43.80;;;;;;4976331;28;20058;-73
2021/05/15 06:23:48;;;;;;;1.10;0.30;;;14.80;42.50;;;;;;4980889;28;20109;-75
2021/05/15 06:26:15;;;;;;;3.83;0.65;;;14.70;42.80;;;;;;4980788;28;20034;-68
2021/05/15 06:28:43;;;;;;;1.17;0.80;;;14.80;43.10;;;;;;4979770;28;20065;-68
2021/05/15 06:31:10;;;;;;;5.57;0.80;;;14.80;43.30;;;;;;4981525;28;20325;-69
2021/05/15 06:33:37;;;;;;;2.90;0.65;;;14.90;43.50;;;;;;4997240;28;20038;-71
2021/05/15 06:36:08;;;;;;;3.80;0.90;;;15.20;43.00;;;;;;4994201;28;20056;-71
2021/05/15 06:38:36;;;;;;;4.40;0.73;;;15.30;42.30;;;;;;4983172;28;20387;-70
2021/05/15 06:41:04;;;;;;;5.00;1.42;;;15.20;42.60;;;;;;4980338;28;20510;-68
2021/05/15 06:43:31;;;;;;;4.65;1.50;;;15.20;43.20;;;;;;4980938;28;20035;-74
2021/05/15 06:45:58;;;;;;;4.53;1.40;;;15.20;43.70;;;;;;4982450;28;20031;-71
2021/05/15 06:48:25;;;;;;;2.65;0.63;;;15.30;43.60;;;;;;4984202;28;20066;-68
2021/05/15 06:50:53;;;;;;;2.63;0.80;;;15.20;43.30;;;;;;4979991;28;20023;-71
2021/05/15 06:53:20;;;;;;;1.95;0.70;;;14.80;44.10;;;;;;4980277;28;20026;-69
2021/05/15 06:55:47;;;;;;;5.20;0.90;;;14.50;44.90;;;;;;4979544;28;20072;-71
2021/05/15 06:58:15;;;;;;;2.58;0.70;;;14.20;45.90;;;;;;4995103;28;20107;-70
2021/05/15 07:00:42;;;;;;;1.75;0.60;;;13.90;46.50;;;;;;4980550;28;20018;-70
2021/05/15 07:03:12;;;;;;;2.30;0.70;;;13.80;46.90;;;;;;4980898;28;20033;-69
2021/05/15 07:05:42;;;;;;;14.15;1.23;;;13.70;46.90;;;;;;4984758;28;20026;-71
2021/05/15 07:08:10;;;;;;;8.93;2.40;;;13.60;47.50;;;;;;4982714;28;20069;-69
2021/05/15 07:10:38;;;;;;;2.45;0.95;;;13.40;48.30;;;;;;4983083;28;20151;-68
2021/05/15 07:13:05;;;;;;;12.02;0.75;;;13.30;47.90;;;;;;4982853;28;20126;-71
2021/05/15 07:15:32;;;;;;;6.10;1.00;;;13.30;47.80;;;;;;4982185;28;20391;-70
2021/05/15 07:18:02;;;;;;;4.80;1.08;;;13.30;48.10;;;;;;4981094;28;20035;-68
2021/05/15 07:20:29;;;;;;;4.78;1.10;;;13.20;48.70;;;;;;4983263;28;20356;-68
2021/05/15 07:22:56;;;;;;;4.10;0.80;;;13.10;48.50;;;;;;4983126;28;20073;-68
2021/05/15 07:25:24;;;;;;;6.60;1.23;;;13.10;49.40;;;;;;4982390;28;20034;-68
2021/05/15 07:27:51;;;;;;;7.30;1.10;;;13.00;48.80;;;;;;4999830;28;20052;-70
2021/05/15 07:30:19;;;;;;;1.17;0.70;;;13.00;48.80;;;;;;4989034;28;20398;-69
2021/05/15 07:32:48;;;;;;;1.33;0.75;;;12.90;49.50;;;;;;4986774;28;20475;-69
2021/05/15 07:35:16;;;;;;;7.20;1.15;;;12.80;49.50;;;;;;4981117;28;20049;-72
2021/05/15 07:37:43;;;;;;;4.97;1.27;;;12.80;49.20;;;;;;4976843;28;20060;-70
2021/05/15 07:40:11;;;;;;;7.80;1.83;;;12.80;49.50;;;;;;4980403;28;20030;-72
2021/05/15 07:42:38;;;;;;;15.23;1.75;;;12.70;49.50;;;;;;4980707;28;20080;-71
2021/05/15 07:45:07;;;;;;;6.93;1.42;;;12.80;49.50;;;;;;4974363;28;20018;-71
2021/05/15 07:47:34;;;;;;;7.00;1.20;;;12.70;49.10;;;;;;4977649;28;20752;-68
2021/05/15 07:50:01;;;;;;;8.55;1.20;;;12.70;49.40;;;;;;4977672;28;20049;-68
2021/05/15 07:52:28;;;;;;;5.88;1.50;;;12.70;49.20;;;;;;4981199;28;20050;-70
2021/05/15 07:54:56;;;;;;;6.60;1.67;;;12.60;49.50;;;;;;4979379;28;20022;-69
2021/05/15 07:57:24;;;;;;;11.38;1.70;;;12.50;50.00;;;;;;4980049;28;20508;-68
2021/05/15 07:59:51;;;;;;;10.73;1.77;;;12.50;51.00;;;;;;4979664;28;20022;-72
2021/05/15 08:02:18;;;;;;;4.28;1.10;;;12.40;50.40;;;;;;4981464;28;20018;-71
2021/05/15 08:04:46;;;;;;;4.03;0.80;;;12.30;50.30;;;;;;4981801;28;20026;-69
2021/05/15 08:07:13;;;;;;;3.28;1.38;;;12.30;50.90;;;;;;4988225;28;20041;-71
2021/05/15 08:09:40;;;;;;;3.22;1.38;;;12.20;50.90;;;;;;4979601;28;20037;-68
2021/05/15 08:12:08;;;;;;;6.05;1.23;;;12.20;51.10;;;;;;4979438;28;20061;-74
2021/05/15 08:14:35;;;;;;;4.85;1.17;;;12.10;51.60;;;;;;4980621;28;20034;-70
2021/05/15 08:17:05;;;;;;;2.17;0.80;;;12.00;52.00;;;;;;4970828;28;20065;-72
2021/05/15 08:19:33;;;;;;;1.88;0.73;;;12.00;51.30;;;;;;4968560;28;20078;-70
2021/05/15 08:22:00;;;;;;;4.22;0.90;;;12.00;51.30;;;;;;4970781;28;20121;-69
2021/05/15 08:24:27;;;;;;;2.78;1.10;;;12.10;51.10;;;;;;4976435;28;20597;-65
2021/05/15 08:26:58;;;;;;;3.15;1.27;;;12.00;51.50;;;;;;4978040;28;20520;-69
2021/05/15 08:29:29;;;;;;;5.28;2.00;;;12.00;51.10;;;;;;4980858;28;20471;-73
2021/05/15 08:31:57;;;;;;;3.75;1.67;;;12.00;52.10;;;;;;4981604;28;20022;-68
2021/05/15 08:34:24;;;;;;;5.53;1.50;;;12.00;52.40;;;;;;4979710;28;20030;-70
2021/05/15 08:36:51;;;;;;;5.13;1.30;;;12.00;52.80;;;;;;4979370;28;20087;-70
2021/05/15 08:39:19;;;;;;;5.03;1.35;;;12.10;54.40;;;;;;4983704;28;20067;-70
2021/05/15 08:41:46;;;;;;;2.53;1.05;;;12.00;51.20;;;;;;4982226;28;20029;-70
2021/05/15 08:44:14;;;;;;;2.15;0.82;;;12.00;53.90;;;;;;4976745;28;20122;-72
2021/05/15 08:46:44;;;;;;;1.77;0.80;;;11.90;51.10;;;;;;4978864;28;20038;-72
2021/05/15 08:49:14;;;;;;;2.10;0.80;;;12.00;51.70;;;;;;4979060;28;20053;-72
2021/05/15 08:51:43;;;;;;;3.72;0.85;;;11.90;50.40;;;;;;4980510;28;20130;-71
2021/05/15 08:54:11;;;;;;;2.70;0.95;;;12.00;52.00;;;;;;4978898;28;20034;-72
2021/05/15 08:56:39;;;;;;;3.22;1.00;;;11.90;52.50;;;;;;4977414;28;20429;-72
2021/05/15 08:59:07;;;;;;;4.28;0.75;;;11.90;50.70;;;;;;4976535;28;20234;-70
2021/05/15 09:01:34;;;;;;;4.35;0.90;;;11.90;56.20;;;;;;4976630;28;20549;-73
2021/05/15 09:04:05;;;;;;;2.92;0.75;;;11.70;53.50;;;;;;4979236;28;20027;-70
2021/05/15 09:06:32;;;;;;;1.05;0.75;;;11.70;57.90;;;;;;4978510;28;20037;-70
2021/05/15 09:08:59;;;;;;;1.42;1.00;;;11.70;58.40;;;;;;4979033;28;20034;-71
2021/05/15 09:11:26;;;;;;;1.75;0.85;;;11.70;56.30;;;;;;4969349;28;20031;-69
2021/05/15 09:13:57;;;;;;;1.30;0.73;;;11.60;57.10;;;;;;4967313;28;20669;-75
2021/05/15 09:16:24;;;;;;;4.50;0.88;;;11.70;57.40;;;;;;4973832;28;20419;-79
2021/05/15 09:18:51;;;;;;;1.67;0.63;;;11.50;55.50;;;;;;4976694;28;20521;-68
2021/05/15 09:21:25;;;;;;;2.80;1.40;;;11.40;58.00;;;;;;4978486;28;20053;-69
2021/05/15 09:23:52;;;;;;;8.07;1.17;;;11.40;56.90;;;;;;5017516;28;20335;-70
2021/05/15 09:26:24;;;;;;;6.30;1.30;;;11.40;54.30;;;;;;5001584;28;20041;-72
2021/05/15 09:28:57;;;;;;;7.00;1.13;;;11.30;53.30;;;;;;4979722;28;20474;-70
2021/05/15 09:31:30;;;;;;;4.50;1.40;;;11.40;53.20;;;;;;4978052;28;20023;-67
2021/05/15 09:34:00;;;;;;;7.00;2.28;;;11.40;53.20;;;;;;4984514;28;20041;-68
2021/05/15 09:36:48;;;;;;;3.58;1.23;;;11.40;52.30;;;;;;4982217;28;20415;-67
2021/05/15 09:39:21;;;;;;;11.38;1.80;;;11.50;51.10;;;;;;4977094;28;20100;-74
2021/05/15 09:41:52;;;;;;;8.68;1.40;;;11.60;54.80;;;;;;4632174;28;10000080;-67
2021/05/15 09:44:26;;;;;;;6.55;1.63;;;11.60;51.10;;;;;;4976560;28;20030;-67
2021/05/15 09:46:55;;;;;;;12.25;1.70;;;11.60;54.30;;;;;;4969613;28;20030;-67
2021/05/15 09:49:25;;;;;;;4.70;1.20;;;11.60;52.30;;;;;;4980648;28;20818;-67
2021/05/15 09:51:58;;;;;;;1.67;1.00;;;11.50;54.70;;;;;;4978713;28;20631;-68
2021/05/15 09:54:27;;;;;;;3.15;0.90;;;11.50;53.30;;;;;;4979277;28;20496;-65
2021/05/15 09:57:11;;;;;;;3.20;1.00;;;11.70;59.30;;;;;;4981233;28;20113;-69
2021/05/15 09:59:42;;;;;;;5.55;1.40;;;11.60;54.90;;;;;;4974880;28;20576;-67
2021/05/15 10:02:15;;;;;;;4.65;1.20;;;11.70;52.60;;;;;;4983075;28;20701;-65
2021/05/15 10:04:45;;;;;;;5.38;1.50;;;11.60;54.50;;;;;;4980181;28;20565;-69
2021/05/15 10:07:38;;;;;;;6.28;1.52;;;11.60;60.00;;;;;;4982861;28;20258;-67
2021/05/15 10:10:08;;;;;;;4.43;1.70;;;11.60;58.50;;;;;;4980768;28;20485;-65
2021/05/15 10:12:36;;;;;;;8.82;2.00;;;11.70;55.10;;;;;;4976379;28;20123;-67
2021/05/15 10:15:06;;;;;;;6.30;1.75;;;11.60;55.20;;;;;;4982501;28;20718;-64
2021/05/15 10:17:37;;;;;;;6.85;1.50;;;11.60;53.60;;;;;;4980397;28;20219;-66
2021/05/15 10:20:09;;;;;;;4.88;1.30;;;11.50;55.70;;;;;;4979846;28;20098;-66
2021/05/15 10:22:43;;;;;;;3.92;1.27;;;11.50;63.20;;;;;;4976854;28;20405;-68
2021/05/15 10:25:16;;;;;;;4.40;1.40;;;11.70;69.80;;;;;;4975660;28;20356;-67
2021/05/15 10:27:45;;;;;;;;;;;11.70;55.60;;;;;;4975306;28;20459;-69
2021/05/15 10:30:23;;;;;;;7.38;1.15;;;11.60;53.30;;;;;;4976158;28;20523;-67
2021/05/15 10:33:02;;;;;;;3.95;1.38;;;11.60;54.50;;;;;;4980921;28;20022;-66
2021/05/15 10:35:39;;;;;;;2.40;0.98;;;11.50;61.50;;;;;;4987311;28;20034;-62
2021/05/15 10:38:16;;;;;;;2.47;1.25;;;11.30;57.50;;;;;;4980854;28;20026;-63
2021/05/15 10:40:48;;;;;;;2.42;1.17;;;11.10;57.50;;;;;;4974164;28;20280;-66
2021/05/15 10:43:33;;;;;;;3.42;1.52;;;11.00;59.30;;;;;;4979413;28;20030;-67
2021/05/15 10:46:16;;;;;;;3.53;1.40;;;10.90;67.00;;;;;;4981138;28;20027;-70
2021/05/15 10:49:11;;;;;;;3.25;1.73;;;11.00;57.70;;;;;;4979179;28;20341;-72
2021/05/15 10:51:57;;;;;;;4.22;1.20;;;11.00;60.40;;;;;;4977697;28;20040;-70
2021/05/15 10:55:03;;;;;;;3.92;1.13;;;11.10;60.00;;;;;;4973888;28;20025;-62
2021/05/15 10:57:31;;;;;;;4.45;1.75;;;11.10;57.00;;;;;;4983988;28;20050;-65
2021/05/15 11:00:01;;;;;;;2.05;1.40;;;11.00;59.10;;;;;;4976864;28;20076;-66
2021/05/15 11:02:39;;;;;;;3.45;1.00;;;10.90;60.40;;;;;;4981556;28;20595;-67
2021/05/15 11:05:21;;;;;;;2.63;1.05;;;10.70;56.50;;;;;;4977183;28;20466;-65
2021/05/15 11:07:51;;;;;;;2.58;0.80;;;10.80;59.10;;;;;;4978418;28;20464;-67
2021/05/15 11:10:22;;;;;;;4.32;1.38;;;10.90;59.10;;;;;;4980252;28;20561;-70
2021/05/15 11:12:53;;;;;;;4.97;1.42;;;10.90;58.00;;;;;;4978444;28;20026;-68
2021/05/15 11:15:23;;;;;;;4.32;1.27;;;10.80;58.00;;;;;;4979772;28;20405;-70
2021/05/15 11:18:03;;;;;;;6.65;1.45;;;10.80;59.70;;;;;;4978321;28;20505;-73
2021/05/15 11:20:44;;;;;;;4.88;1.45;;;10.90;58.10;;;;;;4981594;28;20486;-68
2021/05/15 11:23:14;;;;;;;6.75;1.55;;;10.80;59.30;;;;;;4985727;28;20026;-71
2021/05/15 11:25:54;;;;;;;8.30;1.70;;;10.70;58.30;;;;;;4982995;28;20544;-68
2021/05/15 11:28:26;;;;;;;2.50;0.80;;;10.80;65.20;;;;;;4981618;28;20046;-69
2021/05/15 11:30:56;;;;;;;6.30;1.73;;;10.70;59.20;;;;;;4983167;28;20030;-68
2021/05/15 11:33:25;;;;;;;3.33;1.60;;;10.70;67.20;;;;;;4982065;28;20534;-70
2021/05/15 11:35:59;;;;;;;4.55;1.88;;;11.00;66.10;;;;;;4982614;28;20535;-70
2021/05/15 11:38:34;;;;;;;2.55;1.08;;;11.70;72.50;;;;;;4983597;28;20075;-73
2021/05/15 11:41:11;;;;;;;4.82;1.73;;;12.00;58.90;;;;;;4979972;28;20477;-68
2021/05/15 11:43:40;;;;;;;2.90;0.90;;;12.10;60.70;;;;;;4982737;28;20274;-69
2021/05/15 11:46:10;;;;;;;3.85;1.30;;;12.30;60.20;;;;;;4983202;28;20106;-66
2021/05/15 11:48:40;;;;;;;5.15;1.30;;;12.40;63.60;;;;;;4979236;28;20558;-71
2021/05/15 11:51:15;;;;;;;3.40;0.77;;;12.20;57.80;;;;;;4982364;28;20502;-69
2021/05/15 11:53:46;;;;;;;3.58;1.33;;;12.50;56.30;;;;;;4980100;28;20500;-70
2021/05/15 11:56:26;;;;;;;2.22;0.75;;;12.60;65.20;;;;;;4975721;28;20483;-71
2021/05/15 11:59:00;;;;;;;6.25;1.50;;;12.10;57.50;;;;;;4982614;28;20515;-73
2021/05/15 12:01:35;;;;;;;5.20;2.42;;;12.60;62.60;;;;;;4980543;28;20967;-68
2021/05/15 12:04:08;;;;;;;3.85;1.50;;;13.00;63.30;;;;;;4978307;28;20030;-75
2021/05/15 12:06:35;;;;;;;;;;;12.80;54.60;;;;;;4982152;28;20030;-68
2021/05/15 12:09:12;;;;;;;3.28;1.00;;;12.60;53.50;;;;;;4981072;28;19913;-69
2021/05/15 12:11:39;;;;;;;4.35;1.30;;;12.10;58.60;;;;;;4980783;28;20030;-71
2021/05/15 12:14:07;;;;;;;3.67;1.23;;;12.20;64.10;;;;;;4980795;28;20886;-68
2021/05/15 12:16:36;;;;;;;6.68;1.23;;;11.80;61.30;;;;;;4981552;28;20054;-69
2021/05/15 12:19:05;;;;;;;3.70;1.25;;;11.60;58.10;;;;;;4978177;28;20403;-72
2021/05/15 12:21:33;;;;;;;3.92;1.25;;;11.80;60.80;;;;;;4982051;28;20037;-72
2021/05/15 12:24:05;;;;;;;2.83;1.15;;;12.10;68.70;;;;;;4981637;28;20019;-70
2021/05/15 12:26:33;;;;;;;2.70;1.00;;;12.30;61.30;;;;;;4980096;28;20089;-73
2021/05/15 12:29:05;;;;;;;2.53;0.93;;;12.40;60.50;;;;;;4982284;28;20057;-69
2021/05/15 12:31:35;;;;;;;7.15;2.10;;;12.20;65.90;;;;;;4995043;28;20045;-73
2021/05/15 12:34:07;;;;;;;12.13;2.10;;;12.10;58.00;;;;;;4982119;28;20525;-70
2021/05/15 12:36:39;;;;;;;11.73;1.67;;;11.80;62.10;;;;;;4981339;28;20037;-71
2021/05/15 12:39:10;;;;;;;9.98;2.08;;;11.40;60.60;;;;;;4980697;28;20031;-70
2021/05/15 12:41:40;;;;;;;13.25;3.30;;;11.40;59.10;;;;;;4983484;28;20041;-73
2021/05/15 12:44:12;;;;;;;10.25;2.90;;;11.30;61.60;;;;;;4985642;28;20022;-70
2021/05/15 12:46:40;;;;;;;;;;;11.20;61.30;;;;;;4985958;28;20041;-68
2021/05/15 12:49:09;;;;;;;13.48;2.35;;;11.10;59.30;;;;;;4979623;28;19974;-68
2021/05/15 12:51:45;;;;;;;8.55;1.38;;;10.80;59.80;;;;;;4980607;28;20034;-68
2021/05/15 12:54:12;;;;;;;15.00;1.60;;;10.80;60.30;;;;;;4977143;28;20308;-67
2021/05/15 12:56:40;;;;;;;5.13;1.25;;;10.50;62.90;;;;;;4980136;28;20142;-69
2021/05/15 12:59:09;;;;;;;4.97;1.25;;;10.60;64.10;;;;;;4980133;28;20027;-70
2021/05/15 13:01:39;;;;;;;8.38;1.45;;;10.60;63.80;;;;;;4982416;28;20036;-71
2021/05/15 13:04:07;;;;;;;9.07;2.03;;;10.50;60.00;;;;;;4979068;28;20030;-70
2021/05/15 13:06:40;;;;;;;4.13;1.50;;;10.60;66.80;;;;;;4980068;28;20696;-70
2021/05/15 13:09:08;;;;;;;3.80;0.82;;;10.60;63.50;;;;;;4982236;28;20114;-69
2021/05/15 13:11:38;;;;;;;4.55;0.95;;;10.60;63.80;;;;;;4980431;28;20073;-75
2021/05/15 13:14:05;;;;;;;4.47;0.88;;;10.60;61.60;;;;;;4980847;28;20034;-68
2021/05/15 13:16:33;;;;;;;4.63;0.88;;;10.60;60.70;;;;;;4979002;28;20482;-71
2021/05/15 13:19:08;;;;;;;3.28;0.98;;;10.50;66.00;;;;;;4980299;28;20498;-71
2021/05/15 13:21:36;;;;;;;1.85;1.00;;;10.50;63.50;;;;;;4978409;28;20081;-70
2021/05/15 13:24:05;;;;;;;1.85;0.90;;;10.40;64.80;;;;;;4979720;28;20172;-70
2021/05/15 13:26:32;;;;;;;1.85;0.63;;;10.20;63.10;;;;;;4980590;28;20297;-72